エカテリンブルク の空港の天気 - METARとTAF

コルツォヴォ空港 ( USSS / SVX ) - ロシア エカテリンブルク
飛行場実況気象(Metar)
観測時間01/20 07:30 YEKT (01/20 02:30 UTC)
風向・風速南 1m/s
視程2300m
天気現象弱いしゅう雪
全天を覆う雲 雲底高度 1130m
気温-3℃
湿度93%
気圧1006hPa
METARUSSS 200230Z 18001MPS 2300 -SHSN OVC037CB M03/M04 Q1006 R26R/490335 NOSIG RMK QFE734/0979
過去の天気等 Google飛行場航空写真 Wunderground天気予報

過去48時間のMETAR

飛行場予報(TAF)
発表時間: 1/20 06:57 YEKT (1/20 01:57 UTC)
予報対象時間: 20日8時 YEKT ~ 21日8時 YEKT
風向・風速南南西 3m/s 瞬間風速 12m/s
視程2100m
天気現象弱いしゅう雪
全天の8割程度の雲 雲底高度 210m
全天の4割程度の積乱雲 雲底高度 460m
20日8時 YEKT ~ 20日14時 YEKT に一時的に
視程900m
天気現象強いしゅう雪
全天を覆う雲 鉛直視程 120m
20日14時 YEKT ~ 20日15時 YEKT に徐々に
視程3100m
天気現象弱いしゅう雪
全天の8割程度の雲 雲底高度 340m
全天の4割程度の積乱雲 雲底高度 610m
20日15時 YEKT ~ 20日16時 YEKT に徐々に
風向・風速西 3m/s 瞬間風速 13m/s
TAF USSS 200157Z 2003/2103 21003G12MPS 2100 -SHSN BKN007 SCT015CB
TEMPO 2003/2009 0900 +SHSN VV004
BECMG 2009/2010 3100 -SHSN BKN011 SCT020CB
BECMG 2010/2011 27003G13MPS